createdAt,value
2018-09-21T00:01:19.787Z,69.64
2018-09-21T00:03:53.900Z,69.59
2018-09-21T00:06:23.455Z,69.47
2018-09-21T00:08:52.954Z,69.44
2018-09-21T00:11:21.559Z,69.59
2018-09-21T00:13:50.726Z,69.44
2018-09-21T00:16:20.490Z,69.63
2018-09-21T00:18:49.144Z,69.76
2018-09-21T00:21:17.779Z,69.88
2018-09-21T00:23:46.398Z,70.06
2018-09-21T00:26:15.028Z,70.06
2018-09-21T00:28:43.967Z,70.13
2018-09-21T00:31:12.632Z,70.03
2018-09-21T00:33:41.293Z,70.24
2018-09-21T00:36:11.061Z,70.05
2018-09-21T00:38:39.921Z,69.94
2018-09-21T00:41:08.547Z,70.05
2018-09-21T00:43:37.167Z,70.33
2018-09-21T00:46:05.823Z,70.14
2018-09-21T00:48:34.451Z,70.29
2018-09-21T00:51:03.857Z,70.19
2018-09-21T00:53:32.501Z,70.60
2018-09-21T00:56:02.507Z,70.72
2018-09-21T00:58:32.088Z,70.60
2018-09-21T01:01:02.122Z,70.91
2018-09-21T01:03:31.373Z,71.18
2018-09-21T01:06:00.126Z,71.16
2018-09-21T01:08:28.983Z,71.46
2018-09-21T01:10:57.842Z,71.75
2018-09-21T01:13:26.471Z,71.66
2018-09-21T01:15:55.087Z,71.83
2018-09-21T01:18:23.734Z,71.72
2018-09-21T01:20:52.344Z,72.00
2018-09-21T01:23:21.058Z,71.92
2018-09-21T01:25:51.111Z,72.17
2018-09-21T01:28:19.716Z,72.30
2018-09-21T01:30:48.333Z,72.42
2018-09-21T01:33:16.943Z,72.45
2018-09-21T01:35:45.566Z,72.49
2018-09-21T01:38:14.264Z,72.58
2018-09-21T01:40:44.540Z,72.56
2018-09-21T01:43:13.196Z,72.44
2018-09-21T01:45:41.819Z,72.50
2018-09-21T01:48:10.443Z,72.39
2018-09-21T01:50:39.080Z,72.20
2018-09-21T01:53:07.655Z,72.41
2018-09-21T01:55:36.304Z,72.49
2018-09-21T01:58:04.908Z,72.40
2018-09-21T02:00:33.563Z,72.78
2018-09-21T02:03:02.267Z,73.46
2018-09-21T02:05:30.895Z,73.01
2018-09-21T02:07:59.547Z,72.52
2018-09-21T02:10:30.816Z,72.86
2018-09-21T02:12:59.787Z,72.73
2018-09-21T02:15:28.402Z,72.78
2018-09-21T02:17:57.790Z,72.30
2018-09-21T02:20:26.389Z,72.48
2018-09-21T02:22:54.995Z,72.19
2018-09-21T02:25:23.906Z,72.37
2018-09-21T02:27:52.515Z,71.94
2018-09-21T02:30:22.694Z,71.70
2018-09-21T02:32:51.314Z,71.08
2018-09-21T02:35:19.930Z,70.84
2018-09-21T02:37:48.603Z,70.40
2018-09-21T02:40:17.243Z,69.98
2018-09-21T02:42:45.996Z,70.34
2018-09-21T02:45:14.700Z,69.93
2018-09-21T02:47:44.341Z,69.82
2018-09-21T02:50:12.991Z,69.56
2018-09-21T02:52:41.615Z,69.18
2018-09-21T02:55:10.275Z,69.13
2018-09-21T02:57:38.901Z,69.33
2018-09-21T03:00:08.051Z,69.45
2018-09-21T03:02:37.722Z,69.63
2018-09-21T03:05:06.363Z,69.52
2018-09-21T03:07:35.008Z,69.10
2018-09-21T03:10:03.628Z,69.50
2018-09-21T03:12:33.092Z,69.12
2018-09-21T03:15:09.000Z,69.37
2018-09-21T03:17:37.999Z,69.55
2018-09-21T03:20:06.667Z,69.89
2018-09-21T03:25:00.995Z,69.61
2018-09-21T03:27:29.605Z,69.98
2018-09-21T03:29:58.207Z,70.25
2018-09-21T03:32:27.102Z,70.93
2018-09-21T03:34:55.748Z,69.99
2018-09-21T03:37:24.351Z,69.54
2018-09-21T03:39:52.975Z,69.33
2018-09-21T03:42:21.608Z,69.24
2018-09-21T03:44:50.292Z,69.37
2018-09-21T03:47:18.945Z,69.59
2018-09-21T03:49:47.555Z,69.11
2018-09-21T03:52:16.227Z,69.36
2018-09-21T03:54:44.859Z,68.99
2018-09-21T03:57:13.448Z,69.28
2018-09-21T03:59:42.133Z,69.05
2018-09-21T04:02:10.760Z,69.08
2018-09-21T04:04:42.433Z,69.03
2018-09-21T04:07:11.645Z,69.14
2018-09-21T04:09:40.296Z,69.02
2018-09-21T04:12:08.954Z,69.27
2018-09-21T04:14:37.615Z,69.53
2018-09-21T04:17:06.965Z,69.41
2018-09-21T04:19:35.714Z,69.47
2018-09-21T04:22:04.519Z,69.56
2018-09-21T04:24:33.172Z,69.46
2018-09-21T04:27:01.812Z,67.96
2018-09-21T04:29:30.475Z,68.48
2018-09-21T04:31:59.112Z,68.49
2018-09-21T04:34:27.768Z,68.29
2018-09-21T04:36:56.428Z,68.50
2018-09-21T04:39:25.036Z,68.63
2018-09-21T04:41:53.652Z,68.12
2018-09-21T04:44:22.353Z,68.37
2018-09-21T04:46:51.301Z,68.21
2018-09-21T04:49:20.053Z,68.59
2018-09-21T04:51:48.728Z,68.64
2018-09-21T04:54:17.365Z,68.60
2018-09-21T04:56:46.018Z,68.92
2018-09-21T04:59:15.253Z,68.41
2018-09-21T05:01:43.930Z,68.57
2018-09-21T05:04:12.583Z,68.12
2018-09-21T05:06:41.442Z,67.96
2018-09-21T05:09:10.913Z,67.71
2018-09-21T05:11:39.570Z,67.60
2018-09-21T05:14:08.208Z,67.74
2018-09-21T05:16:36.818Z,67.33
2018-09-21T05:19:05.550Z,67.43
2018-09-21T05:21:34.215Z,67.42
2018-09-21T05:24:02.905Z,67.81
2018-09-21T05:26:32.520Z,68.06
2018-09-21T05:29:01.147Z,67.81
2018-09-21T05:31:29.778Z,68.31
2018-09-21T05:33:58.462Z,69.85
2018-09-21T05:36:27.019Z,68.09
2018-09-21T05:38:55.745Z,68.70
2018-09-21T05:41:24.347Z,68.77
2018-09-21T05:43:53.098Z,68.75
2018-09-21T05:46:21.761Z,68.39
2018-09-21T05:48:50.467Z,68.21
2018-09-21T05:51:19.102Z,68.31
2018-09-21T05:53:47.735Z,68.30
2018-09-21T05:56:16.360Z,68.05
2018-09-21T05:58:45.015Z,68.24
2018-09-21T06:01:13.644Z,67.60
2018-09-21T06:03:42.267Z,67.74
2018-09-21T06:06:10.971Z,67.51
2018-09-21T06:08:39.607Z,67.12
2018-09-21T06:11:08.205Z,66.47
2018-09-21T06:13:36.973Z,65.99
2018-09-21T06:16:05.793Z,65.73
2018-09-21T06:18:34.410Z,64.61
2018-09-21T06:21:03.059Z,64.66
2018-09-21T06:23:31.687Z,63.77
2018-09-21T06:26:02.278Z,63.72
2018-09-21T06:28:30.874Z,63.00
2018-09-21T06:30:59.607Z,63.02
2018-09-21T06:33:28.286Z,62.49
2018-09-21T06:35:56.915Z,62.73
2018-09-21T06:38:25.507Z,62.48
2018-09-21T06:40:54.188Z,62.48
2018-09-21T06:43:22.809Z,62.57
2018-09-21T06:45:51.663Z,62.24
2018-09-21T06:48:20.309Z,61.62
2018-09-21T06:50:48.947Z,61.17
2018-09-21T06:53:17.605Z,60.59
2018-09-21T06:55:46.223Z,60.07
2018-09-21T06:58:14.866Z,59.72
2018-09-21T07:00:43.511Z,59.27
2018-09-21T07:03:12.195Z,58.49
2018-09-21T07:05:40.923Z,57.99
2018-09-21T07:08:09.549Z,57.38
2018-09-21T07:10:38.155Z,56.91
2018-09-21T07:13:06.748Z,57.19
2018-09-21T07:15:35.409Z,56.99
2018-09-21T07:18:04.141Z,56.53
2018-09-21T07:20:32.751Z,56.01
2018-09-21T07:23:01.423Z,55.16
2018-09-21T07:25:30.002Z,55.06
2018-09-21T07:27:58.634Z,54.35
2018-09-21T07:30:27.235Z,53.72
2018-09-21T07:32:55.857Z,53.49
2018-09-21T07:35:24.509Z,54.31
2018-09-21T07:37:53.155Z,53.60
2018-09-21T07:40:21.960Z,53.60
2018-09-21T07:42:50.665Z,53.02
2018-09-21T07:45:19.375Z,52.22
2018-09-21T07:47:48.008Z,52.08
2018-09-21T07:50:16.643Z,51.35
2018-09-21T07:52:45.301Z,50.83
2018-09-21T07:55:13.916Z,50.45
2018-09-21T07:57:42.545Z,49.98
2018-09-21T08:00:11.135Z,49.36
2018-09-21T08:02:39.784Z,49.12
2018-09-21T08:05:08.434Z,48.41
2018-09-21T08:07:37.249Z,48.67
2018-09-21T08:10:05.919Z,48.29
2018-09-21T08:12:34.539Z,48.74
2018-09-21T08:15:03.151Z,48.10
2018-09-21T08:17:31.783Z,47.36
2018-09-21T08:20:00.396Z,46.78
2018-09-21T08:22:29.052Z,46.82
2018-09-21T08:24:57.709Z,46.30
2018-09-21T08:27:26.383Z,45.43
2018-09-21T08:29:54.979Z,45.57
2018-09-21T08:32:23.608Z,45.37
2018-09-21T08:34:52.263Z,45.59
2018-09-21T08:37:21.012Z,45.15
2018-09-21T08:39:49.517Z,43.91
2018-09-21T08:42:18.155Z,44.08
2018-09-21T08:44:46.759Z,43.57
2018-09-21T08:47:15.385Z,43.43
2018-09-21T08:49:44.101Z,42.73
2018-09-21T08:52:12.737Z,42.71
2018-09-21T08:54:41.342Z,44.05
2018-09-21T08:57:09.946Z,44.80
2018-09-21T08:59:38.588Z,44.38
2018-09-21T09:02:07.184Z,42.96
2018-09-21T09:04:36.730Z,42.05
2018-09-21T09:07:05.549Z,40.60
2018-09-21T09:09:34.198Z,40.55
2018-09-21T09:12:02.857Z,41.68
2018-09-21T09:14:31.452Z,41.36
2018-09-21T09:17:00.061Z,40.22
2018-09-21T09:19:28.722Z,40.83
2018-09-21T09:21:57.338Z,38.65
2018-09-21T09:24:25.969Z,37.63
2018-09-21T09:26:54.643Z,37.12
2018-09-21T09:29:23.276Z,36.90
2018-09-21T09:31:51.888Z,35.94
2018-09-21T09:34:20.535Z,35.40
2018-09-21T09:36:49.733Z,34.86
2018-09-21T09:39:18.292Z,35.48
2018-09-21T09:41:46.908Z,35.14
2018-09-21T09:44:15.539Z,35.19
2018-09-21T09:46:44.148Z,34.98
2018-09-21T09:49:12.864Z,35.81
2018-09-21T09:51:41.455Z,36.00
2018-09-21T09:54:10.097Z,36.22
2018-09-21T09:56:38.736Z,37.17
2018-09-21T09:59:07.559Z,37.63
2018-09-21T10:01:36.153Z,37.86
2018-09-21T10:04:04.771Z,38.89
2018-09-21T10:06:33.370Z,39.99
2018-09-21T10:09:02.003Z,39.82
2018-09-21T10:11:30.639Z,39.87
2018-09-21T10:13:59.275Z,39.76
2018-09-21T10:16:27.929Z,39.92
2018-09-21T10:18:56.515Z,39.25
2018-09-21T10:21:25.246Z,38.73
2018-09-21T10:23:53.849Z,38.83
2018-09-21T10:26:22.488Z,38.34
2018-09-21T10:28:51.488Z,38.45
2018-09-21T10:31:19.859Z,38.09
2018-09-21T10:33:48.584Z,38.82
2018-09-21T10:36:17.152Z,38.61
2018-09-21T10:38:45.776Z,38.73
2018-09-21T10:41:14.411Z,37.99
2018-09-21T10:43:43.046Z,37.86
2018-09-21T10:46:12.783Z,38.72
2018-09-21T10:48:41.545Z,38.56
2018-09-21T10:51:10.216Z,38.70
2018-09-21T10:53:39.036Z,38.28
2018-09-21T10:56:07.662Z,38.42
2018-09-21T10:58:36.491Z,38.05
2018-09-21T11:01:05.103Z,38.95
2018-09-21T11:03:33.704Z,38.73
2018-09-21T11:06:02.376Z,38.79
2018-09-21T11:08:31.088Z,38.61
2018-09-21T11:10:59.710Z,38.98
2018-09-21T11:13:28.310Z,38.61
2018-09-21T11:15:56.999Z,39.48
2018-09-21T11:18:25.639Z,39.92
2018-09-21T11:20:54.332Z,40.41
2018-09-21T11:23:23.266Z,40.82
2018-09-21T11:25:51.851Z,40.53
2018-09-21T11:28:20.454Z,40.70
2018-09-21T11:30:49.435Z,40.57
2018-09-21T11:33:18.058Z,40.56
2018-09-21T11:35:47.038Z,40.47
2018-09-21T11:38:15.668Z,40.47
2018-09-21T11:40:44.399Z,40.63
2018-09-21T11:43:13.053Z,40.91
2018-09-21T11:45:42.209Z,41.00
2018-09-21T11:48:11.569Z,40.87
2018-09-21T11:50:40.237Z,41.24
2018-09-21T11:53:08.884Z,41.49
2018-09-21T11:55:37.525Z,41.21
2018-09-21T11:58:06.671Z,41.19
2018-09-21T12:00:35.486Z,41.16
2018-09-21T12:03:04.247Z,41.37
2018-09-21T12:05:32.986Z,41.51
2018-09-21T12:08:01.745Z,41.96
2018-09-21T12:10:30.790Z,42.02
2018-09-21T12:12:59.382Z,42.09
2018-09-21T12:15:28.009Z,42.38
2018-09-21T12:17:56.749Z,42.38
2018-09-21T12:20:26.354Z,42.28
2018-09-21T12:22:55.199Z,42.43
2018-09-21T12:25:23.805Z,42.71
2018-09-21T12:27:52.465Z,43.00
2018-09-21T12:30:21.165Z,42.93
2018-09-21T12:32:49.838Z,43.47
2018-09-21T12:35:18.459Z,43.79
2018-09-21T12:37:47.087Z,51.27
2018-09-21T12:40:15.754Z,63.47
2018-09-21T12:42:44.454Z,69.44
2018-09-21T12:45:13.201Z,77.58
2018-09-21T12:47:42.104Z,77.83
2018-09-21T12:50:10.795Z,78.93
2018-09-21T12:52:39.535Z,79.90
2018-09-21T12:55:08.509Z,81.10
2018-09-21T12:57:37.906Z,81.97
2018-09-21T13:00:08.434Z,83.86
2018-09-21T13:02:37.356Z,83.41
2018-09-21T13:05:05.946Z,82.15
2018-09-21T13:07:34.883Z,82.16
2018-09-21T13:10:03.966Z,83.59
2018-09-21T13:12:32.671Z,81.68
2018-09-21T13:15:01.908Z,80.99
2018-09-21T13:17:30.537Z,80.63
2018-09-21T13:19:59.229Z,80.89
2018-09-21T13:22:28.100Z,81.09
2018-09-21T13:24:56.719Z,79.99
2018-09-21T13:27:26.053Z,80.41
2018-09-21T13:29:54.896Z,80.43
2018-09-21T13:32:23.768Z,80.06
2018-09-21T13:34:52.678Z,80.25
2018-09-21T13:37:21.484Z,80.07
2018-09-21T13:39:50.138Z,81.60
2018-09-21T13:42:18.972Z,80.39
2018-09-21T13:44:47.670Z,80.96
2018-09-21T13:47:16.509Z,80.86
2018-09-21T13:49:45.518Z,80.72
2018-09-21T13:52:14.651Z,80.72
2018-09-21T13:54:43.487Z,81.66
2018-09-21T13:57:12.188Z,80.58
2018-09-21T13:59:40.815Z,79.86
2018-09-21T14:02:09.447Z,80.15
2018-09-21T14:04:38.058Z,79.77
2018-09-21T14:07:06.824Z,79.29
2018-09-21T14:09:35.447Z,81.28
2018-09-21T14:12:04.083Z,80.00
2018-09-21T14:14:32.726Z,82.01
2018-09-21T14:17:01.389Z,81.31
2018-09-21T14:19:30.056Z,80.82
2018-09-21T14:21:58.751Z,81.29
2018-09-21T14:24:27.560Z,79.78
2018-09-21T14:26:56.547Z,79.09
2018-09-21T14:29:25.385Z,78.52
2018-09-21T14:31:54.447Z,77.89
2018-09-21T14:34:23.121Z,78.98
2018-09-21T14:36:51.871Z,76.83
2018-09-21T14:39:20.728Z,79.77
2018-09-21T14:41:49.670Z,79.12
2018-09-21T14:44:18.483Z,79.73
2018-09-21T14:46:47.783Z,80.11
2018-09-21T14:49:16.675Z,79.63
2018-09-21T14:51:45.375Z,78.80
2018-09-21T14:54:14.014Z,79.98
2018-09-21T14:56:43.128Z,80.28
2018-09-21T14:59:12.957Z,80.00
2018-09-21T15:01:41.760Z,79.90
2018-09-21T15:04:10.380Z,79.77
2018-09-21T15:06:39.105Z,81.07
2018-09-21T15:09:09.279Z,81.33
2018-09-21T15:11:38.415Z,81.50
2018-09-21T15:14:07.082Z,81.41
2018-09-21T15:16:36.023Z,81.58
2018-09-21T15:19:04.527Z,81.95
2018-09-21T15:21:33.295Z,82.41
2018-09-21T15:24:01.948Z,81.66
2018-09-21T15:26:30.571Z,82.28
2018-09-21T15:28:59.231Z,81.89
2018-09-21T15:31:27.903Z,82.36
2018-09-21T15:33:56.697Z,82.67
2018-09-21T15:36:25.286Z,81.18
2018-09-21T15:38:53.911Z,81.83
2018-09-21T15:41:22.546Z,82.47
2018-09-21T15:43:51.191Z,81.05
2018-09-21T15:46:19.906Z,80.82
2018-09-21T15:48:48.652Z,80.77
2018-09-21T15:51:17.578Z,81.71
2018-09-21T15:53:46.520Z,81.93
2018-09-21T15:56:15.138Z,81.22
2018-09-21T15:58:44.741Z,80.93
2018-09-21T16:01:13.890Z,81.36
2018-09-21T16:03:42.754Z,82.11
2018-09-21T16:06:11.569Z,81.60
2018-09-21T16:08:40.201Z,82.06
2018-09-21T16:11:08.833Z,81.87
2018-09-21T16:13:37.842Z,81.87
2018-09-21T16:16:06.548Z,82.81
2018-09-21T16:18:35.195Z,82.18
2018-09-21T16:21:04.095Z,82.02
2018-09-21T16:23:32.795Z,82.61
2018-09-21T16:26:02.092Z,81.88
2018-09-21T16:28:30.925Z,81.33
2018-09-21T16:30:59.567Z,80.75
2018-09-21T16:33:31.346Z,80.51
2018-09-21T16:36:00.105Z,80.38
2018-09-21T16:38:29.189Z,80.89
2018-09-21T16:40:58.145Z,81.22
2018-09-21T16:43:26.794Z,80.58
2018-09-21T16:45:55.407Z,79.96
2018-09-21T16:48:24.288Z,79.99
2018-09-21T16:50:52.944Z,80.17
2018-09-21T16:53:22.053Z,79.93
2018-09-21T16:55:50.710Z,79.69
2018-09-21T16:58:19.686Z,79.91
2018-09-21T17:00:49.094Z,79.10
2018-09-21T17:03:18.025Z,78.41
2018-09-21T17:05:47.126Z,77.18
2018-09-21T17:08:15.761Z,76.15
2018-09-21T17:10:44.619Z,75.16
2018-09-21T17:13:13.279Z,74.67
2018-09-21T17:15:41.855Z,74.37
2018-09-21T17:18:10.550Z,73.35
2018-09-21T17:20:39.142Z,73.52
2018-09-21T17:23:07.786Z,73.08
2018-09-21T17:25:36.559Z,71.35
2018-09-21T17:28:05.392Z,71.75
2018-09-21T17:30:34.019Z,71.49
2018-09-21T17:33:02.644Z,70.77
2018-09-21T17:35:31.335Z,68.80
2018-09-21T17:38:00.061Z,70.30
2018-09-21T17:40:28.713Z,68.63
2018-09-21T17:42:57.351Z,69.49
2018-09-21T17:45:26.128Z,69.52
2018-09-21T17:47:55.712Z,69.64
2018-09-21T17:50:27.858Z,69.88
2018-09-21T17:52:56.593Z,69.05
2018-09-21T17:55:25.303Z,68.71
2018-09-21T17:57:53.975Z,69.60
2018-09-21T18:00:22.676Z,69.10
2018-09-21T18:02:51.383Z,68.44
2018-09-21T18:05:20.053Z,68.05
2018-09-21T18:07:48.691Z,68.39
2018-09-21T18:10:17.311Z,68.04
2018-09-21T18:12:46.015Z,68.20
2018-09-21T18:15:14.808Z,67.47
2018-09-21T18:17:43.415Z,67.38
2018-09-21T18:20:12.129Z,68.36
2018-09-21T18:22:40.782Z,68.78
2018-09-21T18:25:09.406Z,67.62
2018-09-21T18:27:38.026Z,68.66
2018-09-21T18:30:06.843Z,68.57
2018-09-21T18:32:35.476Z,68.43
2018-09-21T18:35:04.117Z,68.25
2018-09-21T18:37:32.843Z,68.83
2018-09-21T18:40:01.407Z,69.57
2018-09-21T18:42:30.216Z,70.40
2018-09-21T18:44:59.034Z,70.00
2018-09-21T18:47:27.700Z,69.47
2018-09-21T18:49:56.512Z,68.99
2018-09-21T18:52:25.118Z,68.33
2018-09-21T18:54:53.744Z,68.53
2018-09-21T18:57:22.624Z,67.35
2018-09-21T18:59:51.249Z,67.47
2018-09-21T19:02:19.933Z,67.69
2018-09-21T19:04:48.579Z,68.02
2018-09-21T19:07:22.747Z,68.28
2018-09-21T19:09:51.403Z,69.43
2018-09-21T19:12:20.057Z,69.33
2018-09-21T19:14:48.733Z,69.47
2018-09-21T19:17:17.496Z,69.78
2018-09-21T19:19:46.167Z,69.06
2018-09-21T19:22:14.867Z,68.76
2018-09-21T19:24:43.579Z,69.33
2018-09-21T19:27:12.208Z,68.80
2018-09-21T19:29:40.908Z,69.18
2018-09-21T19:32:09.603Z,69.63
2018-09-21T19:34:38.247Z,69.27
2018-09-21T19:37:06.915Z,68.99
2018-09-21T19:39:35.541Z,68.82
2018-09-21T19:42:04.200Z,68.79
2018-09-21T19:44:32.829Z,67.96
2018-09-21T19:47:01.499Z,68.35
2018-09-21T19:49:30.212Z,68.30
2018-09-21T19:51:58.974Z,66.93
2018-09-21T19:54:27.741Z,67.47
2018-09-21T19:56:56.413Z,67.15
2018-09-21T19:59:25.071Z,67.44
2018-09-21T20:01:53.731Z,67.84
2018-09-21T20:04:22.399Z,68.38
2018-09-21T20:06:51.078Z,69.08
2018-09-21T20:09:19.847Z,69.72
2018-09-21T20:11:48.715Z,70.14
2018-09-21T20:14:17.403Z,70.50
2018-09-21T20:16:46.044Z,70.75
2018-09-21T20:19:14.667Z,70.68
2018-09-21T20:21:43.300Z,70.22
2018-09-21T20:24:11.989Z,70.03
2018-09-21T20:26:40.651Z,69.20
2018-09-21T20:29:09.541Z,69.04
2018-09-21T20:31:43.826Z,69.43
2018-09-21T20:34:14.592Z,68.72
2018-09-21T20:36:45.152Z,68.55
2018-09-21T20:39:13.818Z,68.36
2018-09-21T20:41:43.603Z,67.97
2018-09-21T20:44:12.329Z,67.40
2018-09-21T20:46:41.111Z,67.33
2018-09-21T20:49:10.121Z,67.38
2018-09-21T20:51:38.735Z,67.78
2018-09-21T20:54:07.416Z,67.71
2018-09-21T20:56:36.183Z,67.47
2018-09-21T20:59:04.792Z,67.99
2018-09-21T21:01:34.580Z,67.36
2018-09-21T21:04:03.204Z,67.29
2018-09-21T21:06:31.847Z,68.31
2018-09-21T21:09:00.468Z,66.96
2018-09-21T21:11:29.087Z,66.72
2018-09-21T21:13:57.719Z,67.17
2018-09-21T21:16:29.738Z,67.16
2018-09-21T21:18:58.375Z,66.49
2018-09-21T21:21:27.998Z,66.31
2018-09-21T21:23:56.605Z,65.62
2018-09-21T21:26:25.287Z,65.48
2018-09-21T21:28:54.063Z,65.09
2018-09-21T21:31:22.860Z,65.29
2018-09-21T21:33:51.475Z,65.39
2018-09-21T21:36:20.095Z,66.25
2018-09-21T21:38:48.727Z,66.29
2018-09-21T21:41:17.459Z,67.12
2018-09-21T21:43:46.094Z,66.75
2018-09-21T21:46:14.722Z,66.91
2018-09-21T21:48:43.321Z,67.13
2018-09-21T21:51:11.965Z,66.61
2018-09-21T21:53:40.551Z,65.82
2018-09-21T21:56:09.179Z,65.32
2018-09-21T21:58:37.989Z,65.31
2018-09-21T22:01:12.031Z,65.35
2018-09-21T22:03:40.675Z,64.32
2018-09-21T22:06:09.283Z,64.42
2018-09-21T22:08:37.918Z,64.50
2018-09-21T22:11:10.811Z,64.27
2018-09-21T22:13:44.911Z,64.12
2018-09-21T22:16:13.536Z,63.78
2018-09-21T22:18:42.195Z,63.60
2018-09-21T22:21:10.808Z,63.77
2018-09-21T22:23:39.435Z,63.68
2018-09-21T22:26:08.107Z,63.71
2018-09-21T22:28:36.755Z,63.84
2018-09-21T22:31:05.498Z,63.71
2018-09-21T22:33:34.479Z,64.60
2018-09-21T22:36:03.676Z,65.52
2018-09-21T22:38:32.281Z,65.96
2018-09-21T22:41:00.912Z,65.94
2018-09-21T22:43:30.058Z,66.12
2018-09-21T22:45:58.747Z,66.01
2018-09-21T22:48:29.697Z,66.09
2018-09-21T22:50:58.365Z,65.63
2018-09-21T22:53:27.022Z,66.22
2018-09-21T22:55:55.638Z,66.32
2018-09-21T22:58:24.316Z,66.08
2018-09-21T23:00:52.917Z,66.51
2018-09-21T23:03:21.575Z,66.66
2018-09-21T23:05:50.260Z,66.57
2018-09-21T23:08:18.879Z,66.36
2018-09-21T23:10:47.548Z,65.74
2018-09-21T23:13:16.195Z,66.38
2018-09-21T23:15:44.840Z,66.53
2018-09-21T23:18:13.458Z,67.08
2018-09-21T23:20:42.103Z,67.12
2018-09-21T23:23:10.711Z,66.96
2018-09-21T23:25:39.405Z,67.02
2018-09-21T23:28:08.930Z,67.09
2018-09-21T23:30:37.579Z,67.92
2018-09-21T23:33:06.509Z,67.73
2018-09-21T23:35:35.192Z,67.87
2018-09-21T23:38:04.069Z,67.93
2018-09-21T23:40:32.734Z,68.30
2018-09-21T23:43:01.408Z,68.40
2018-09-21T23:45:30.035Z,69.18
2018-09-21T23:47:58.697Z,69.54
2018-09-21T23:50:27.303Z,70.13
2018-09-21T23:52:55.942Z,70.44
2018-09-21T23:55:24.651Z,70.47
2018-09-21T23:57:53.295Z,70.64
